Time;durP1;ratioP1;P1;durP2;ratioP2;P2;SDS_P1;SDS_P2;PMS_P1;PMS_P2;Temp;Humidity;BMP_temperature;BMP_pressure;BME280_temperature;BME280_humidity;BME280_pressure;Samples;Min_cycle;Max_cycle;Signal;HPM_P1;HPM_P2
2023/04/25 00:02:35;;;;;;;1.53;1.07;;;;;;;17.31;48.04;96068.31;10348162;28;20050;-33
2023/04/25 00:07:36;;;;;;;2.20;1.10;;;;;;;17.30;47.87;96074.22;10348157;28;20035;-33
2023/04/25 00:12:36;;;;;;;1.63;1.40;;;;;;;17.27;47.78;96084.38;10337977;28;20058;-32
2023/04/25 00:17:38;;;;;;;2.40;1.70;;;;;;;17.22;47.74;96085.22;10334737;28;20117;-32
2023/04/25 00:22:38;;;;;;;1.10;1.00;;;;;;;17.24;47.53;96086.06;10341015;28;20073;-32
2023/04/25 00:27:38;;;;;;;2.22;1.25;;;;;;;17.27;47.24;96097.03;10346497;28;20050;-33
2023/04/25 00:32:39;;;;;;;1.40;1.15;;;;;;;17.28;47.47;96090.25;10338966;28;20085;-33
2023/04/25 00:37:40;;;;;;;1.73;1.00;;;;;;;17.39;49.01;96086.00;10331647;28;20046;-32
2023/04/25 00:42:41;;;;;;;2.83;1.20;;;;;;;17.55;54.93;96092.66;10331230;28;20031;-33
2023/04/25 00:47:44;;;;;;;2.80;1.20;;;;;;;17.51;51.49;96088.47;10337830;28;20046;-32
2023/04/25 00:52:45;;;;;;;1.40;0.90;;;;;;;17.44;48.33;96084.28;10325348;28;20132;-33
2023/04/25 00:57:46;;;;;;;2.53;0.95;;;;;;;17.36;48.05;96068.31;10339987;28;20161;-33
2023/04/25 01:02:47;;;;;;;2.00;1.35;;;;;;;17.34;48.02;96065.75;10344242;28;20380;-32
2023/04/25 01:07:47;;;;;;;2.17;1.67;;;;;;;17.33;47.98;96060.72;10340574;28;20034;-33
2023/04/25 01:12:47;;;;;;;1.97;0.93;;;;;;;17.31;47.66;96063.25;10345634;28;20042;-33
2023/04/25 01:17:49;;;;;;;2.00;1.02;;;;;;;17.30;47.74;96065.78;10350060;28;20731;-33
2023/04/25 01:22:51;;;;;;;3.05;1.90;;;;;;;17.30;47.90;96063.25;10352515;28;20125;-32
2023/04/25 01:27:51;;;;;;;2.05;1.13;;;;;;;17.29;47.64;96059.03;10344708;28;20034;-32
2023/04/25 01:32:55;;;;;;;1.50;1.40;;;;;;;17.28;47.78;96048.09;10345016;28;20035;-32
2023/04/25 01:37:55;;;;;;;1.10;0.93;;;;;;;17.27;47.46;96054.00;10346020;28;20042;-32
2023/04/25 01:42:56;;;;;;;1.40;0.90;;;;;;;17.27;47.76;96043.03;10342136;28;20212;-32
2023/04/25 01:47:59;;;;;;;2.45;1.10;;;;;;;17.37;49.44;96047.22;10333962;28;20351;-32
2023/04/25 01:52:59;;;;;;;3.17;1.48;;;;;;;17.46;56.35;96037.03;10341868;28;20042;-33
2023/04/25 01:58:02;;;;;;;2.10;1.30;;;;;;;17.52;53.38;96037.00;10346659;28;20588;-32
2023/04/25 02:03:22;;;;;;;2.03;1.25;;;;;;;17.38;48.49;96034.56;10348390;28;20575;-33
2023/04/25 02:08:22;;;;;;;1.05;0.82;;;;;;;17.33;47.92;96048.91;10352267;28;20124;-33
2023/04/25 02:13:23;;;;;;;1.35;1.02;;;;;;;17.33;47.67;96037.94;10339315;28;20033;-32
2023/04/25 02:18:37;;;;;;;1.00;0.88;;;;;;;17.30;47.45;96031.22;10347646;28;20038;-32
2023/04/25 02:23:40;;;;;;;1.60;1.10;;;;;;;17.29;47.76;96033.75;10342436;28;20057;-33
2023/04/25 02:28:41;;;;;;;2.93;1.23;;;;;;;17.29;47.39;96023.63;10333731;28;20500;-34
2023/04/25 02:33:41;;;;;;;3.92;1.02;;;;;;;17.29;47.57;96016.88;10325801;28;20296;-32
2023/04/25 02:38:41;;;;;;;1.60;1.20;;;;;;;17.27;47.69;96020.28;10337391;28;20041;-32
2023/04/25 02:43:42;;;;;;;3.90;1.20;;;;;;;17.26;47.47;96018.59;10341152;28;20137;-32
2023/04/25 02:48:42;;;;;;;1.23;0.80;;;;;;;17.27;47.28;96025.34;10341348;28;20049;-32
2023/04/25 02:53:43;;;;;;;1.90;1.20;;;;;;;17.27;47.51;96026.19;10343141;28;20451;-32
2023/04/25 02:58:44;;;;;;;2.58;1.00;;;;;;;17.34;49.35;96010.09;10345315;28;20085;-32
2023/04/25 03:03:45;;;;;;;1.40;0.85;;;;;;;17.44;56.80;95993.19;10355883;28;20570;-32
2023/04/25 03:08:46;;;;;;;1.58;1.27;;;;;;;17.47;53.00;96004.13;10351482;28;20505;-32
2023/04/25 03:13:46;;;;;;;1.47;1.37;;;;;;;17.38;48.62;96000.81;10352285;28;20101;-32
2023/04/25 03:18:46;;;;;;;1.38;0.90;;;;;;;17.34;48.28;95996.63;10344309;28;20324;-33
2023/04/25 03:23:47;;;;;;;1.47;0.97;;;;;;;17.31;47.75;95996.66;10353306;28;20462;-32
2023/04/25 03:28:47;;;;;;;1.90;1.00;;;;;;;17.28;48.15;95991.59;10349239;28;20038;-33
2023/04/25 03:33:48;;;;;;;4.75;1.65;;;;;;;17.26;47.95;95984.00;10342435;28;20285;-33
2023/04/25 03:38:48;;;;;;;2.08;1.17;;;;;;;17.29;47.50;95978.09;10344100;28;20061;-32
2023/04/25 03:43:50;;;;;;;2.05;1.00;;;;;;;17.28;47.27;95968.81;10335723;28;20113;-32
2023/04/25 03:48:51;;;;;;;1.95;1.38;;;;;;;17.28;47.38;95962.09;10347233;28;20396;-34
2023/04/25 03:53:56;;;;;;;2.47;1.30;;;;;;;17.30;47.66;95962.91;10339551;28;20037;-33
2023/04/25 03:59:16;;;;;;;3.28;1.30;;;;;;;17.30;47.24;95954.47;10344152;28;20128;-33
2023/04/25 04:04:18;;;;;;;1.98;1.05;;;;;;;17.33;47.33;95944.34;10347871;28;20154;-32
2023/04/25 04:09:20;;;;;;;2.25;1.13;;;;;;;17.38;47.81;95943.50;10349182;28;20137;-32
2023/04/25 04:14:21;;;;;;;2.80;1.40;;;;;;;17.46;57.06;95940.88;10356814;28;20026;-32
2023/04/25 04:19:23;;;;;;;2.22;0.82;;;;;;;17.49;54.06;95938.34;10342528;28;20034;-33
2023/04/25 04:24:46;;;;;;;3.42;1.42;;;;;;;17.44;48.36;95935.84;10345731;28;20387;-32
2023/04/25 04:29:48;;;;;;;3.05;1.90;;;;;;;17.43;47.81;95941.78;10346810;28;20117;-33
2023/04/25 04:34:55;;;;;;;2.55;1.10;;;;;;;17.37;47.40;95926.63;10374413;28;20129;-33
2023/04/25 04:39:57;;;;;;;1.85;1.13;;;;;;;17.39;47.37;95939.25;10335118;28;20416;-32
2023/04/25 04:45:18;;;;;;;1.90;1.48;;;;;;;17.39;46.86;95935.03;10347134;28;20117;-32
2023/04/25 04:50:32;;;;;;;1.73;1.42;;;;;;;17.34;47.56;95935.91;10348108;28;20061;-32
2023/04/25 04:55:49;;;;;;;2.35;1.10;;;;;;;17.38;47.11;95950.22;10347109;28;20097;-33
2023/04/25 05:01:10;;;;;;;1.38;1.20;;;;;;;17.30;47.98;95950.25;10334614;28;20042;-32
2023/04/25 05:06:29;;;;;;;5.25;1.30;;;;;;;17.28;47.26;95948.59;10354321;28;20042;-32
2023/04/25 05:11:48;;;;;;;1.20;1.10;;;;;;;17.25;46.96;95951.16;10343066;28;20623;-33
2023/04/25 05:17:00;;;;;;;3.45;1.27;;;;;;;17.22;46.92;95953.69;10324010;28;20525;-33
2023/04/25 05:22:16;;;;;;;9.07;1.50;;;;;;;17.40;52.02;95951.06;10335832;28;20026;-32
2023/04/25 05:27:34;;;;;;;9.40;1.98;;;;;;;17.50;54.98;95952.69;10327968;28;20117;-33
2023/04/25 05:33:01;;;;;;;;;;;;;;;17.26;49.29;95957.88;10327635;28;20034;-33
2023/04/25 05:38:01;;;;;;;2.75;1.40;;;;;;;17.32;47.58;95968.78;10327032;28;19917;-33
2023/04/25 05:43:22;;;;;;;2.63;1.40;;;;;;;17.32;47.56;95973.84;10331793;28;20049;-34
2023/04/25 05:48:31;;;;;;;2.25;1.40;;;;;;;17.34;47.40;95971.31;10329313;28;20066;-33
2023/04/25 05:54:05;;;;;;;2.25;1.25;;;;;;;17.33;47.07;95974.72;10319401;28;20034;-33
2023/04/25 05:59:07;;;;;;;3.13;1.20;;;;;;;17.33;47.27;95977.22;10330106;28;20715;-33
2023/04/25 06:04:08;;;;;;;3.13;1.20;;;;;;;17.32;46.96;95998.31;10334372;28;20041;-33
2023/04/25 06:09:08;;;;;;;2.33;1.10;;;;;;;17.31;47.12;96011.84;10345511;28;20034;-32
2023/04/25 06:14:09;;;;;;;1.70;1.20;;;;;;;17.36;47.03;96018.56;10325868;28;20041;-32
2023/04/25 06:19:13;;;;;;;1.80;1.30;;;;;;;17.39;47.29;96021.06;10331268;28;20414;-31
2023/04/25 06:24:14;;;;;;;2.78;1.15;;;;;;;17.39;47.84;96032.88;10334366;28;20126;-32
2023/04/25 06:29:14;;;;;;;1.98;1.00;;;;;;;17.39;47.65;96030.34;10335449;28;20046;-33
2023/04/25 06:34:15;;;;;;;2.38;1.20;;;;;;;17.46;57.61;96037.88;10324676;28;20034;-32
2023/04/25 06:39:16;;;;;;;2.78;1.30;;;;;;;17.50;58.11;96044.59;10329507;28;20058;-32
2023/04/25 06:44:17;;;;;;;2.08;1.30;;;;;;;17.48;53.53;96046.31;10322833;28;20076;-32
2023/04/25 06:49:26;;;;;;;2.88;1.10;;;;;;;17.44;50.20;96048.88;10328410;28;20057;-32
2023/04/25 06:54:29;;;;;;;2.20;1.10;;;;;;;17.42;49.41;96050.56;10324665;28;20030;-32
2023/04/25 06:59:38;;;;;;;1.67;1.02;;;;;;;17.39;49.17;96048.91;10325455;28;20046;-32
2023/04/25 07:04:39;;;;;;;3.85;1.08;;;;;;;17.41;49.96;96057.31;10322925;28;20088;-33
2023/04/25 07:09:40;;;;;;;3.40;0.95;;;;;;;17.39;49.34;96053.09;10331474;28;20038;-32
2023/04/25 07:14:40;;;;;;;1.57;0.90;;;;;;;17.40;49.54;96059.88;10325196;28;20113;-32
2023/04/25 07:19:43;;;;;;;1.20;0.90;;;;;;;17.37;49.60;96073.38;10324474;28;20792;-32
2023/04/25 07:24:47;;;;;;;1.67;1.10;;;;;;;17.38;49.49;96071.66;10323952;28;20030;-32
2023/04/25 07:29:47;;;;;;;3.25;0.98;;;;;;;17.39;49.45;96075.88;10321161;28;20037;-32
2023/04/25 07:34:48;;;;;;;1.30;1.00;;;;;;;17.38;49.46;96079.25;10324638;28;20045;-33
2023/04/25 07:39:48;;;;;;;1.63;0.82;;;;;;;17.38;49.56;96090.22;10336479;28;20042;-32
2023/04/25 07:44:50;;;;;;;2.33;1.20;;;;;;;17.46;58.33;96096.09;10331960;28;20030;-33
2023/04/25 07:49:50;;;;;;;1.38;1.10;;;;;;;17.48;58.57;96101.97;10327766;28;20061;-32
2023/04/25 07:54:51;;;;;;;2.85;1.13;;;;;;;17.48;56.54;96114.63;10332305;28;20088;-33
2023/04/25 07:59:56;;;;;;;1.87;0.90;;;;;;;17.43;52.00;96123.09;10331115;28;20049;-32
2023/04/25 08:04:57;;;;;;;3.03;1.02;;;;;;;17.40;51.07;96133.25;10331377;28;20027;-31
2023/04/25 08:09:58;;;;;;;3.17;1.03;;;;;;;17.38;50.78;96150.97;10330765;28;20038;-33
2023/04/25 08:15:06;;;;;;;1.98;1.00;;;;;;;17.39;50.70;96156.84;10322927;28;20400;-32
2023/04/25 08:20:10;;;;;;;1.55;0.75;;;;;;;17.37;50.87;96153.47;10330640;28;20034;-32
2023/04/25 08:25:11;;;;;;;1.05;0.60;;;;;;;17.38;50.25;96165.28;10330039;28;20404;-32
2023/04/25 08:30:13;;;;;;;1.13;0.70;;;;;;;17.37;50.62;96183.84;10333408;28;20038;-32
2023/04/25 08:35:17;;;;;;;2.75;1.02;;;;;;;17.39;50.80;96192.25;10335049;28;20130;-32
2023/04/25 08:40:19;;;;;;;1.00;0.90;;;;;;;17.37;50.68;96199.03;10338713;28;20058;-33
2023/04/25 08:45:32;;;;;;;1.05;0.75;;;;;;;17.38;50.49;96200.72;10328725;28;20113;-33
2023/04/25 08:50:34;;;;;;;1.52;0.80;;;;;;;17.35;50.35;96201.56;10328460;28;20065;-32
2023/04/25 08:55:39;;;;;;;1.58;1.17;;;;;;;17.42;58.75;96212.50;10338337;28;20501;-33
2023/04/25 09:00:39;;;;;;;0.88;0.80;;;;;;;17.44;58.48;96221.78;10334940;28;20064;-33
2023/04/25 09:05:41;;;;;;;2.88;0.82;;;;;;;17.47;58.48;96225.97;10351544;28;20048;-32
2023/04/25 09:10:42;;;;;;;0.70;0.70;;;;;;;17.40;53.53;96234.47;10336789;28;20038;-32
2023/04/25 09:15:54;;;;;;;1.25;0.90;;;;;;;17.38;51.82;96242.03;10328164;28;20401;-32
2023/04/25 09:21:11;;;;;;;2.22;0.80;;;;;;;17.38;51.48;96241.19;10346802;28;20639;-33
2023/04/25 09:26:17;;;;;;;1.00;0.75;;;;;;;17.37;51.36;96247.09;10328315;28;20038;-32
2023/04/25 09:31:25;;;;;;;0.88;0.75;;;;;;;17.35;51.49;96257.22;10329025;28;20034;-33
2023/04/25 09:36:30;;;;;;;0.65;0.65;;;;;;;17.34;50.99;96265.63;10341108;28;20041;-32
2023/04/25 09:41:42;;;;;;;0.80;0.70;;;;;;;17.36;51.18;96268.19;10331936;28;20484;-32
2023/04/25 09:46:42;;;;;;;0.85;0.57;;;;;;;17.39;51.39;96265.66;10334674;28;20089;-32
2023/04/25 09:51:58;;;;;;;1.17;0.80;;;;;;;17.40;51.17;96277.47;10326428;28;20038;-33
2023/04/25 09:57:21;;;;;;;0.98;0.90;;;;;;;17.40;50.93;96290.13;10331457;28;20043;-33
2023/04/25 10:02:26;;;;;;;1.42;0.90;;;;;;;17.40;50.77;96290.94;10331157;28;20247;-33
2023/04/25 10:07:31;;;;;;;0.52;0.52;;;;;;;17.46;58.35;96301.06;10328683;28;20408;-33
2023/04/25 10:12:35;;;;;;;1.90;0.90;;;;;;;17.50;58.68;96296.84;10334436;28;20084;-32
2023/04/25 10:17:36;;;;;;;0.85;0.65;;;;;;;17.49;56.22;96307.81;10324635;28;20386;-32
2023/04/25 10:22:42;;;;;;;0.93;0.80;;;;;;;17.48;52.03;96303.59;10327036;28;20038;-33
2023/04/25 10:27:43;;;;;;;0.70;0.70;;;;;;;17.47;53.57;96301.88;10323719;28;20081;-32
2023/04/25 10:32:45;;;;;;;1.00;0.52;;;;;;;17.48;51.47;96303.59;10324602;28;20113;-32
2023/04/25 10:38:25;;;;;;;0.80;0.68;;;;;;;17.46;52.71;96293.47;10332859;28;20047;-32
2023/04/25 10:43:40;;;;;;;0.90;0.60;;;;;;;17.49;51.62;96300.22;10240604;28;20453;-33
2023/04/25 10:48:47;;;;;;;0.77;0.77;;;;;;;17.51;52.14;96301.88;10309495;28;20046;-34
2023/04/25 10:54:00;;;;;;;0.70;0.50;;;;;;;17.53;51.98;96302.75;10325917;28;20045;-32
2023/04/25 10:59:10;;;;;;;0.75;0.70;;;;;;;17.55;52.44;96300.19;10328067;28;20505;-33
2023/04/25 11:04:30;;;;;;;0.50;0.45;;;;;;;17.55;52.07;96302.72;10326204;28;20105;-32
2023/04/25 11:09:32;;;;;;;0.90;0.85;;;;;;;17.57;52.26;96313.69;10322467;28;20042;-32
2023/04/25 11:14:33;;;;;;;0.47;0.40;;;;;;;17.57;52.36;96314.53;10332451;28;20042;-33
2023/04/25 11:19:33;;;;;;;0.93;0.60;;;;;;;17.58;58.25;96311.13;10333944;28;20057;-32
2023/04/25 11:24:35;;;;;;;1.50;1.00;;;;;;;17.58;58.51;96307.78;10340509;28;20288;-32
2023/04/25 11:29:36;;;;;;;0.85;0.68;;;;;;;17.56;53.72;96289.25;10343463;28;20046;-33
2023/04/25 11:34:36;;;;;;;0.60;0.60;;;;;;;17.56;55.07;96296.84;10335704;28;20579;-33
2023/04/25 11:39:37;;;;;;;3.97;0.50;;;;;;;17.53;52.39;96291.75;10331947;28;20575;-33
2023/04/25 11:44:40;;;;;;;0.97;0.70;;;;;;;17.48;52.29;96284.19;10333241;28;20293;-33
2023/04/25 11:49:41;;;;;;;0.80;0.60;;;;;;;17.47;53.13;96276.59;10333329;28;20081;-33
2023/04/25 11:54:46;;;;;;;0.73;0.50;;;;;;;17.54;54.92;96283.31;10332287;28;20629;-32
2023/04/25 11:59:46;;;;;;;2.33;0.93;;;;;;;17.54;53.88;96288.38;10332618;28;20095;-33
2023/04/25 12:04:47;;;;;;;3.80;1.00;;;;;;;17.53;58.01;96296.81;10340621;28;20030;-33
2023/04/25 12:09:51;;;;;;;3.33;0.83;;;;;;;17.46;55.28;96305.28;10325824;28;20305;-33
2023/04/25 12:14:52;;;;;;;7.80;1.35;;;;;;;17.44;55.79;96312.88;10332763;28;20068;-32
2023/04/25 12:19:52;;;;;;;5.07;1.23;;;;;;;17.44;54.10;96333.13;10331394;28;20607;-32
2023/04/25 12:24:53;;;;;;;1.50;0.90;;;;;;;17.48;53.54;96334.78;10331219;28;20027;-32
2023/04/25 12:29:56;;;;;;;1.10;1.00;;;;;;;17.51;58.97;96323.84;10331076;28;20030;-34
2023/04/25 12:34:56;;;;;;;5.97;1.27;;;;;;;17.56;59.04;96333.09;10333492;28;20035;-33
2023/04/25 12:39:56;;;;;;;4.00;1.13;;;;;;;17.53;54.86;96324.66;10336629;28;20500;-33
2023/04/25 12:44:57;;;;;;;1.83;0.90;;;;;;;17.52;53.46;96321.31;10342258;28;20313;-32
2023/04/25 12:49:57;;;;;;;3.47;1.10;;;;;;;17.54;53.07;96319.59;10327701;28;20464;-32
2023/04/25 12:54:57;;;;;;;3.43;1.03;;;;;;;17.56;53.01;96322.97;10329588;28;20554;-33
2023/04/25 12:59:58;;;;;;;5.13;1.10;;;;;;;17.50;52.95;96324.69;10330152;28;20359;-32
2023/04/25 13:04:58;;;;;;;7.63;1.17;;;;;;;17.54;53.39;96314.53;10330508;28;20034;-33
2023/04/25 13:10:00;;;;;;;2.42;1.17;;;;;;;17.53;52.48;96317.06;10326470;28;20042;-32
2023/04/25 13:15:00;;;;;;;3.50;1.30;;;;;;;17.48;53.05;96309.50;10324374;28;20030;-32
2023/04/25 13:20:01;;;;;;;15.27;1.97;;;;;;;17.53;53.84;96312.00;10331177;28;20408;-32
2023/04/25 13:25:01;;;;;;;9.47;1.63;;;;;;;17.52;53.17;96311.19;10329027;28;20535;-32
2023/04/25 13:30:06;;;;;;;11.77;1.67;;;;;;;17.52;53.57;96303.59;10328782;28;20489;-32
2023/04/25 13:35:09;;;;;;;6.20;2.40;;;;;;;17.51;52.74;96301.06;10343054;28;20038;-33
2023/04/25 13:40:11;;;;;;;7.05;1.95;;;;;;;17.65;57.99;96296.81;10327684;28;20038;-32
2023/04/25 13:45:11;;;;;;;10.75;2.83;;;;;;;17.60;54.94;96291.75;10328615;28;20636;-32
2023/04/25 13:50:13;;;;;;;5.17;1.70;;;;;;;17.50;53.11;96304.44;10326748;28;20037;-33
2023/04/25 13:55:13;;;;;;;5.57;1.58;;;;;;;17.50;52.67;96327.22;10336308;28;20422;-33
2023/04/25 14:00:15;;;;;;;3.07;1.47;;;;;;;17.46;52.57;96328.91;10342827;28;20030;-32
2023/04/25 14:05:15;;;;;;;6.93;1.58;;;;;;;17.51;52.72;96339.84;10328254;28;20360;-33
2023/04/25 14:10:15;;;;;;;2.45;1.30;;;;;;;17.49;52.37;96340.72;10327264;28;20443;-32
2023/04/25 14:15:16;;;;;;;2.77;1.37;;;;;;;17.52;52.19;96360.94;10325799;28;20041;-32
2023/04/25 14:20:20;;;;;;;5.63;1.52;;;;;;;17.46;52.05;96345.75;10327025;28;20285;-33
2023/04/25 14:25:21;;;;;;;5.85;2.40;;;;;;;17.50;52.13;96353.34;10341389;28;20048;-33
2023/04/25 14:30:21;;;;;;;2.65;1.35;;;;;;;17.47;51.90;96357.56;10329039;28;20045;-32
2023/04/25 14:35:22;;;;;;;7.00;2.60;;;;;;;17.44;52.26;96342.41;10343730;28;20397;-32
2023/04/25 14:40:23;;;;;;;9.23;2.88;;;;;;;17.48;51.67;96334.78;10333712;28;20037;-32
2023/04/25 14:45:23;;;;;;;7.30;2.23;;;;;;;17.48;52.89;96339.84;10325994;28;20041;-33
2023/04/25 14:50:24;;;;;;;15.40;4.50;;;;;;;17.52;57.24;96339.03;10338846;28;20049;-33
2023/04/25 14:55:25;;;;;;;21.23;4.53;;;;;;;17.66;59.42;96341.50;10319261;28;20038;-32
2023/04/25 15:00:26;;;;;;;19.03;4.00;;;;;;;17.63;57.35;96339.81;10325939;28;20062;-33
2023/04/25 15:05:26;;;;;;;9.27;3.60;;;;;;;17.54;53.02;96344.91;10330219;28;20459;-33
2023/04/25 15:10:28;;;;;;;5.63;2.95;;;;;;;17.50;52.50;96343.22;10319660;28;20100;-32
2023/04/25 15:15:29;;;;;;;4.38;2.80;;;;;;;17.49;52.26;96333.13;10329747;28;20035;-32
2023/04/25 15:20:29;;;;;;;3.92;2.17;;;;;;;17.46;52.35;96348.28;10325179;28;20034;-33
2023/04/25 15:25:30;;;;;;;9.52;3.45;;;;;;;17.49;52.09;96355.91;10326402;28;20046;-33
2023/04/25 15:30:30;;;;;;;4.47;2.20;;;;;;;17.51;51.99;96365.16;10332325;28;20042;-32
2023/04/25 15:35:31;;;;;;;4.10;2.73;;;;;;;17.50;53.68;96383.72;10333240;28;20659;-32
2023/04/25 15:40:31;;;;;;;7.70;2.40;;;;;;;17.50;51.86;96393.00;10329441;28;20347;-33
2023/04/25 15:45:31;;;;;;;5.13;2.20;;;;;;;17.50;51.87;96405.66;10325518;28;20069;-32
2023/04/25 15:50:32;;;;;;;7.00;2.35;;;;;;;17.50;52.34;96413.25;10325022;28;20038;-33
2023/04/25 15:55:33;;;;;;;6.50;2.27;;;;;;;17.46;52.32;96407.34;10317282;28;20455;-32
2023/04/25 16:00:35;;;;;;;8.70;3.25;;;;;;;17.54;55.49;96417.47;10330264;28;20388;-33
2023/04/25 16:05:36;;;;;;;7.70;3.25;;;;;;;17.57;54.44;96420.84;10333351;28;20027;-32
2023/04/25 16:10:37;;;;;;;6.80;3.60;;;;;;;17.65;57.43;96423.38;10325188;28;20034;-32
2023/04/25 16:15:38;;;;;;;3.53;2.83;;;;;;;17.61;53.16;96420.00;10332104;28;20069;-32
2023/04/25 16:20:39;;;;;;;3.80;1.88;;;;;;;17.61;52.42;96422.53;10346822;28;20034;-33
2023/04/25 16:25:39;;;;;;;4.05;2.72;;;;;;;17.59;52.47;96429.25;10329716;28;20038;-32
2023/04/25 16:30:40;;;;;;;3.45;2.10;;;;;;;17.57;52.22;96430.13;10337500;28;20034;-32
2023/04/25 16:35:40;;;;;;;6.25;2.40;;;;;;;17.56;52.30;96426.75;10327837;28;20181;-32
2023/04/25 16:40:41;;;;;;;5.30;2.37;;;;;;;17.60;52.20;96427.59;10330767;28;20053;-30
2023/04/25 16:45:41;;;;;;;4.73;2.20;;;;;;;17.61;52.12;96426.75;10330669;28;20044;-33
2023/04/25 16:50:41;;;;;;;4.78;2.53;;;;;;;17.60;55.96;96438.56;10337317;28;20045;-32
2023/04/25 16:55:42;;;;;;;5.40;2.20;;;;;;;17.58;52.83;96439.41;10327110;28;20056;-33
2023/04/25 17:00:42;;;;;;;2.70;1.97;;;;;;;17.61;52.87;96441.94;10338793;28;20289;-32
2023/04/25 17:05:43;;;;;;;6.68;2.22;;;;;;;17.63;52.71;96452.88;10330442;28;20297;-32
2023/04/25 17:10:43;;;;;;;10.68;2.53;;;;;;;17.65;52.77;96454.56;10339249;28;20049;-32
2023/04/25 17:15:44;;;;;;;9.75;4.20;;;;;;;17.69;60.66;96475.66;10354388;28;20125;-31
2023/04/25 17:20:45;;;;;;;8.40;4.07;;;;;;;17.70;57.92;96475.69;10328139;28;21034;-32
2023/04/25 17:25:45;;;;;;;5.00;2.13;;;;;;;17.74;53.51;96466.41;10329696;28;20030;-32
2023/04/25 17:30:45;;;;;;;6.85;2.85;;;;;;;17.75;53.79;96465.53;10326830;28;20419;-32
2023/04/25 17:35:46;;;;;;;10.13;2.87;;;;;;;17.74;53.40;96471.47;10328743;28;20118;-32
2023/04/25 17:40:46;;;;;;;5.03;2.05;;;;;;;17.72;53.08;96486.66;10329152;28;20289;-32
2023/04/25 17:45:47;;;;;;;4.03;2.57;;;;;;;17.70;53.85;96482.41;10328803;28;20030;-33
2023/04/25 17:50:48;;;;;;;13.37;3.40;;;;;;;17.61;54.61;96478.22;10325413;28;20388;-32
2023/04/25 17:55:49;;;;;;;9.07;2.78;;;;;;;17.54;54.13;96483.25;10332908;28;20301;-33
2023/04/25 18:00:50;;;;;;;5.68;2.97;;;;;;;17.43;53.84;96477.38;10326638;28;20038;-32
2023/04/25 18:05:52;;;;;;;6.68;2.97;;;;;;;17.45;53.77;96474.00;10323847;28;20034;-32
2023/04/25 18:10:53;;;;;;;4.97;2.20;;;;;;;17.44;53.00;96484.13;10331905;28;20050;-32
2023/04/25 18:15:55;;;;;;;8.35;2.60;;;;;;;17.42;53.35;96486.63;10331495;28;20034;-32
2023/04/25 18:20:55;;;;;;;4.13;1.73;;;;;;;17.42;53.37;96485.81;10322362;28;20061;-33
2023/04/25 18:25:56;;;;;;;10.10;3.03;;;;;;;17.58;59.63;96503.50;10334040;28;20107;-33
2023/04/25 18:30:56;;;;;;;12.20;3.73;;;;;;;17.65;60.75;96517.03;10323284;28;20432;-32
2023/04/25 18:35:59;;;;;;;9.55;3.30;;;;;;;17.62;57.61;96506.91;10320416;28;20038;-32
2023/04/25 18:41:00;;;;;;;6.28;3.05;;;;;;;17.53;56.44;96517.00;10319606;28;20803;-32
2023/04/25 18:46:00;;;;;;;6.70;2.37;;;;;;;17.49;55.64;96525.47;10326247;28;20036;-32
2023/04/25 18:51:01;;;;;;;4.80;2.97;;;;;;;17.45;54.88;96533.88;10325383;28;20118;-32
2023/04/25 18:56:01;;;;;;;3.83;2.53;;;;;;;17.43;54.25;96543.16;10330662;28;20061;-32
2023/04/25 19:01:03;;;;;;;6.57;3.23;;;;;;;17.42;53.93;96556.66;10320998;28;20030;-33
2023/04/25 19:06:04;;;;;;;4.30;2.22;;;;;;;17.40;53.47;96548.25;10321233;28;20476;-33
2023/04/25 19:11:05;;;;;;;4.28;2.05;;;;;;;17.39;53.53;96561.69;10334184;28;20034;-32
2023/04/25 19:16:05;;;;;;;5.80;2.63;;;;;;;17.38;53.09;96560.03;10329834;28;20037;-33
2023/04/25 19:21:07;;;;;;;4.63;1.95;;;;;;;17.37;53.14;96565.94;10341825;28;20044;-33
2023/04/25 19:26:07;;;;;;;4.45;2.05;;;;;;;17.35;52.69;96560.84;10322535;28;20061;-32
2023/04/25 19:31:08;;;;;;;3.65;1.60;;;;;;;17.35;52.83;96563.38;10329528;28;20048;-33
2023/04/25 19:36:08;;;;;;;4.63;2.93;;;;;;;17.47;58.37;96572.69;10341379;28;20034;-33
2023/04/25 19:41:09;;;;;;;5.93;3.53;;;;;;;17.57;61.95;96571.88;10333735;28;20061;-32
2023/04/25 19:46:09;;;;;;;6.80;3.10;;;;;;;17.62;60.05;96580.31;10337020;28;20038;-33
2023/04/25 19:51:09;;;;;;;6.38;2.97;;;;;;;17.54;57.76;96582.84;10327188;28;20045;-33
2023/04/25 19:56:10;;;;;;;3.57;2.30;;;;;;;17.47;56.54;96585.34;10346606;28;21250;-33
2023/04/25 20:01:10;;;;;;;4.97;2.23;;;;;;;17.42;55.64;96581.97;10333693;28;20451;-32
2023/04/25 20:06:11;;;;;;;5.15;2.30;;;;;;;17.39;54.66;96592.94;10325954;28;20290;-32
2023/04/25 20:11:11;;;;;;;4.95;2.33;;;;;;;17.47;55.99;96595.47;10329171;28;20042;-32
2023/04/25 20:16:12;;;;;;;4.40;2.03;;;;;;;17.43;55.29;96593.78;10339106;28;20377;-33
2023/04/25 20:21:13;;;;;;;3.10;1.85;;;;;;;17.40;54.46;96588.72;10338647;28;20304;-32
2023/04/25 20:26:14;;;;;;;3.25;2.45;;;;;;;17.38;53.82;96595.44;10332227;28;20044;-32
2023/04/25 20:31:16;;;;;;;3.92;2.00;;;;;;;17.37;53.54;96591.22;10339078;28;20042;-33
2023/04/25 20:36:18;;;;;;;3.58;1.95;;;;;;;17.36;53.59;96597.13;10329047;28;20054;-33
2023/04/25 20:41:19;;;;;;;2.67;1.85;;;;;;;17.35;52.64;96597.94;10344803;28;20060;-32
2023/04/25 20:46:20;;;;;;;7.07;2.22;;;;;;;17.38;56.34;96590.38;10330898;28;20030;-33
2023/04/25 20:51:20;;;;;;;6.50;3.20;;;;;;;17.49;62.75;96591.28;10343188;28;20025;-32
2023/04/25 20:56:20;;;;;;;4.85;2.80;;;;;;;17.50;63.14;96588.72;10345584;28;20441;-32
2023/04/25 21:01:21;;;;;;;5.77;3.17;;;;;;;17.53;60.31;96572.69;10334971;28;20037;-32
2023/04/25 21:06:21;;;;;;;5.03;2.45;;;;;;;17.44;57.50;96575.22;10335404;28;20054;-32
2023/04/25 21:11:22;;;;;;;4.27;2.10;;;;;;;17.42;56.35;96599.69;10330621;28;20077;-32
2023/04/25 21:16:22;;;;;;;3.67;1.70;;;;;;;17.39;55.26;96597.13;10330403;28;20393;-32
2023/04/25 21:21:23;;;;;;;2.40;1.87;;;;;;;17.37;54.89;96614.88;10343023;28;20113;-32
2023/04/25 21:26:24;;;;;;;2.60;1.70;;;;;;;17.36;54.30;96622.44;10330272;28;20076;-32
2023/04/25 21:31:25;;;;;;;3.92;1.88;;;;;;;17.34;53.84;96622.38;10337267;28;20030;-32
2023/04/25 21:36:26;;;;;;;4.22;1.52;;;;;;;17.34;53.50;96619.03;10329256;28;20559;-32
2023/04/25 21:41:27;;;;;;;2.83;1.67;;;;;;;17.33;53.44;96620.72;10327580;28;20092;-32
2023/04/25 21:46:27;;;;;;;1.95;1.20;;;;;;;17.34;53.17;96624.09;10324991;28;20036;-33
2023/04/25 21:51:27;;;;;;;1.67;1.10;;;;;;;17.30;53.01;96625.78;10328203;28;20385;-32
2023/04/25 21:56:28;;;;;;;1.50;1.30;;;;;;;17.31;52.59;96629.16;10327967;28;20305;-33
2023/04/25 22:01:28;;;;;;;5.07;2.53;;;;;;;17.44;62.58;96635.97;10334391;28;20644;-33
2023/04/25 22:06:29;;;;;;;5.00;2.63;;;;;;;17.46;62.49;96634.28;10329366;28;20100;-33
2023/04/25 22:11:29;;;;;;;3.87;2.60;;;;;;;17.52;61.86;96631.75;10327964;28;20293;-32
2023/04/25 22:16:29;;;;;;;4.73;2.03;;;;;;;17.44;58.98;96620.78;10340499;28;20041;-33
2023/04/25 22:21:30;;;;;;;3.97;1.90;;;;;;;17.38;56.76;96621.59;10327004;28;20525;-32
2023/04/25 22:26:32;;;;;;;2.50;1.48;;;;;;;17.37;55.45;96626.66;10344421;28;20408;-33
2023/04/25 22:31:33;;;;;;;1.70;1.55;;;;;;;17.36;54.98;96630.03;10342786;28;20041;-33
2023/04/25 22:36:33;;;;;;;2.22;1.77;;;;;;;17.34;54.45;96634.22;10332334;28;20066;-32
2023/04/25 22:41:34;;;;;;;1.93;1.37;;;;;;;17.31;54.09;96632.50;10327411;28;20070;-33
2023/04/25 22:46:34;;;;;;;2.07;1.20;;;;;;;17.33;53.75;96632.53;10328625;28;20030;-31
2023/04/25 22:51:35;;;;;;;3.43;1.10;;;;;;;17.31;53.59;96634.22;10334112;28;20042;-33
2023/04/25 22:56:36;;;;;;;2.10;1.27;;;;;;;17.30;53.23;96638.41;10329752;28;20514;-32
2023/04/25 23:01:36;;;;;;;2.70;1.00;;;;;;;17.29;53.23;96640.94;10326068;28;20054;-32
2023/04/25 23:06:37;;;;;;;1.73;1.10;;;;;;;17.27;52.77;96632.50;10345726;28;20042;-32
2023/04/25 23:11:41;;;;;;;3.45;1.63;;;;;;;17.36;58.40;96642.69;10333890;28;20093;-33
2023/04/25 23:16:41;;;;;;;2.90;2.10;;;;;;;17.40;62.63;96639.34;10337745;28;20038;-33
2023/04/25 23:21:41;;;;;;;2.97;2.10;;;;;;;17.44;62.50;96646.09;10331241;28;20048;-33
2023/04/25 23:26:42;;;;;;;3.65;2.25;;;;;;;17.45;60.05;96648.63;10334783;28;20049;-32